sensor_id;sensor_type;location;lat;lon;timestamp;pressure;altitude;pressure_sealevel;temperature;humidity
23733;BME280;12047;53.450;-2.286;2022-12-20T00:04:01;99724.84;;;17.50;100.00
23733;BME280;12047;53.450;-2.286;2022-12-20T00:09:11;99726.25;;;17.13;100.00
23733;BME280;12047;53.450;-2.286;2022-12-20T00:14:30;99711.47;;;17.56;100.00
23733;BME280;12047;53.450;-2.286;2022-12-20T00:19:34;99726.69;;;17.36;100.00
23733;BME280;12047;53.450;-2.286;2022-12-20T00:24:40;99720.13;;;17.78;100.00
23733;BME280;12047;53.450;-2.286;2022-12-20T00:29:41;99726.50;;;17.31;100.00
23733;BME280;12047;53.450;-2.286;2022-12-20T00:34:49;99723.81;;;17.31;100.00
23733;BME280;12047;53.450;-2.286;2022-12-20T00:39:50;99726.28;;;17.52;100.00
23733;BME280;12047;53.450;-2.286;2022-12-20T00:44:51;99712.88;;;17.39;100.00
23733;BME280;12047;53.450;-2.286;2022-12-20T00:49:52;99709.19;;;17.66;100.00
23733;BME280;12047;53.450;-2.286;2022-12-20T00:54:56;99717.63;;;17.57;100.00
23733;BME280;12047;53.450;-2.286;2022-12-20T00:59:57;99716.81;;;17.30;100.00
23733;BME280;12047;53.450;-2.286;2022-12-20T01:05:09;99713.69;;;17.13;100.00
23733;BME280;12047;53.450;-2.286;2022-12-20T01:10:10;99715.25;;;16.68;100.00
23733;BME280;12047;53.450;-2.286;2022-12-20T01:15:11;99705.13;;;16.57;100.00
23733;BME280;12047;53.450;-2.286;2022-12-20T01:20:34;99705.13;;;16.57;100.00
23733;BME280;12047;53.450;-2.286;2022-12-20T01:25:37;99708.25;;;16.67;100.00
23733;BME280;12047;53.450;-2.286;2022-12-20T01:30:39;99705.34;;;16.55;100.00
23733;BME280;12047;53.450;-2.286;2022-12-20T01:36:02;99696.22;;;16.43;100.00
23733;BME280;12047;53.450;-2.286;2022-12-20T01:41:24;99698.28;;;16.41;100.00
23733;BME280;12047;53.450;-2.286;2022-12-20T01:46:40;99704.13;;;16.58;100.00
23733;BME280;12047;53.450;-2.286;2022-12-20T02:03:41;99716.56;;;16.31;100.00
23733;BME280;12047;53.450;-2.286;2022-12-20T02:09:05;99713.06;;;16.30;100.00
23733;BME280;12047;53.450;-2.286;2022-12-20T02:20:12;99711.50;;;16.56;100.00
23733;BME280;12047;53.450;-2.286;2022-12-20T02:48:39;99753.78;;;16.32;100.00
23733;BME280;12047;53.450;-2.286;2022-12-20T02:53:41;99751.00;;;16.60;100.00
23733;BME280;12047;53.450;-2.286;2022-12-20T02:58:59;99749.84;;;16.35;100.00
23733;BME280;12047;53.450;-2.286;2022-12-20T03:04:02;99760.59;;;15.73;100.00
23733;BME280;12047;53.450;-2.286;2022-12-20T03:09:04;99759.72;;;16.34;100.00
23733;BME280;12047;53.450;-2.286;2022-12-20T03:14:04;99746.69;;;16.18;100.00
23733;BME280;12047;53.450;-2.286;2022-12-20T03:19:06;99736.03;;;16.66;100.00
23733;BME280;12047;53.450;-2.286;2022-12-20T03:24:07;99719.28;;;16.03;100.00
23733;BME280;12047;53.450;-2.286;2022-12-20T03:35:08;99749.94;;;16.07;100.00
23733;BME280;12047;53.450;-2.286;2022-12-20T03:40:09;99746.66;;;15.77;100.00
23733;BME280;12047;53.450;-2.286;2022-12-20T03:45:13;99731.16;;;16.35;100.00
23733;BME280;12047;53.450;-2.286;2022-12-20T03:50:21;99740.47;;;16.11;100.00
23733;BME280;12047;53.450;-2.286;2022-12-20T03:56:11;99738.81;;;15.48;100.00
23733;BME280;12047;53.450;-2.286;2022-12-20T04:01:37;99760.47;;;15.81;100.00
23733;BME280;12047;53.450;-2.286;2022-12-20T04:06:38;99749.13;;;16.13;100.00
23733;BME280;12047;53.450;-2.286;2022-12-20T04:11:39;99770.38;;;15.44;100.00
23733;BME280;12047;53.450;-2.286;2022-12-20T04:16:40;99768.63;;;15.30;100.00
23733;BME280;12047;53.450;-2.286;2022-12-20T04:21:41;99770.47;;;15.29;100.00
23733;BME280;12047;53.450;-2.286;2022-12-20T04:26:50;99771.69;;;15.06;100.00
23733;BME280;12047;53.450;-2.286;2022-12-20T04:31:53;99757.50;;;15.05;100.00
23733;BME280;12047;53.450;-2.286;2022-12-20T04:36:54;99735.03;;;14.13;100.00
23733;BME280;12047;53.450;-2.286;2022-12-20T04:41:54;99704.56;;;14.01;100.00
23733;BME280;12047;53.450;-2.286;2022-12-20T04:46:55;99712.34;;;14.46;100.00
23733;BME280;12047;53.450;-2.286;2022-12-20T04:51:57;99720.41;;;15.31;100.00
23733;BME280;12047;53.450;-2.286;2022-12-20T04:57:18;99727.97;;;15.28;100.00
23733;BME280;12047;53.450;-2.286;2022-12-20T05:02:18;99733.63;;;15.18;100.00
23733;BME280;12047;53.450;-2.286;2022-12-20T05:07:19;99756.78;;;15.60;100.00
23733;BME280;12047;53.450;-2.286;2022-12-20T05:12:22;99754.50;;;14.93;100.00
23733;BME280;12047;53.450;-2.286;2022-12-20T05:17:23;99743.91;;;14.79;100.00
23733;BME280;12047;53.450;-2.286;2022-12-20T05:22:24;99744.91;;;14.78;100.00
23733;BME280;12047;53.450;-2.286;2022-12-20T05:27:43;99752.88;;;14.42;100.00
23733;BME280;12047;53.450;-2.286;2022-12-20T05:32:43;99750.22;;;14.27;100.00
23733;BME280;12047;53.450;-2.286;2022-12-20T05:37:44;99742.31;;;14.04;100.00
23733;BME280;12047;53.450;-2.286;2022-12-20T05:42:45;99755.19;;;14.45;100.00
23733;BME280;12047;53.450;-2.286;2022-12-20T05:47:45;99750.91;;;14.36;100.00
23733;BME280;12047;53.450;-2.286;2022-12-20T05:52:46;99755.00;;;14.02;100.00
23733;BME280;12047;53.450;-2.286;2022-12-20T05:57:47;99769.88;;;13.96;100.00
23733;BME280;12047;53.450;-2.286;2022-12-20T06:02:48;99782.34;;;14.11;100.00
23733;BME280;12047;53.450;-2.286;2022-12-20T06:07:49;99792.41;;;13.71;100.00
23733;BME280;12047;53.450;-2.286;2022-12-20T06:12:50;99790.50;;;13.80;100.00
23733;BME280;12047;53.450;-2.286;2022-12-20T06:17:50;99800.09;;;14.04;100.00
23733;BME280;12047;53.450;-2.286;2022-12-20T06:22:51;99806.53;;;13.72;100.00
23733;BME280;12047;53.450;-2.286;2022-12-20T06:27:52;99801.41;;;13.70;100.00
23733;BME280;12047;53.450;-2.286;2022-12-20T06:32:53;99808.06;;;13.51;100.00
23733;BME280;12047;53.450;-2.286;2022-12-20T06:37:54;99810.19;;;13.56;100.00
23733;BME280;12047;53.450;-2.286;2022-12-20T06:42:55;99815.72;;;13.69;100.00
23733;BME280;12047;53.450;-2.286;2022-12-20T06:47:56;99812.50;;;13.36;100.00
23733;BME280;12047;53.450;-2.286;2022-12-20T06:52:57;99820.34;;;13.75;100.00
23733;BME280;12047;53.450;-2.286;2022-12-20T06:57:58;99817.19;;;13.72;100.00
23733;BME280;12047;53.450;-2.286;2022-12-20T07:02:58;99817.72;;;13.30;100.00
23733;BME280;12047;53.450;-2.286;2022-12-20T07:07:59;99827.69;;;13.50;100.00
23733;BME280;12047;53.450;-2.286;2022-12-20T07:18:40;99838.94;;;13.07;100.00
23733;BME280;12047;53.450;-2.286;2022-12-20T07:23:40;99842.91;;;13.11;100.00
23733;BME280;12047;53.450;-2.286;2022-12-20T07:28:41;99851.09;;;13.01;100.00
23733;BME280;12047;53.450;-2.286;2022-12-20T07:33:42;99860.50;;;13.12;100.00
23733;BME280;12047;53.450;-2.286;2022-12-20T07:38:43;99866.06;;;13.33;100.00
23733;BME280;12047;53.450;-2.286;2022-12-20T07:43:44;99866.28;;;13.23;100.00
23733;BME280;12047;53.450;-2.286;2022-12-20T07:59:39;99889.13;;;13.41;100.00
23733;BME280;12047;53.450;-2.286;2022-12-20T08:04:40;99893.56;;;13.17;100.00
23733;BME280;12047;53.450;-2.286;2022-12-20T08:15:20;99917.97;;;13.29;100.00
23733;BME280;12047;53.450;-2.286;2022-12-20T08:20:22;99915.34;;;13.21;100.00
23733;BME280;12047;53.450;-2.286;2022-12-20T08:25:23;99928.31;;;13.24;100.00
23733;BME280;12047;53.450;-2.286;2022-12-20T08:30:27;99934.16;;;13.50;100.00
23733;BME280;12047;53.450;-2.286;2022-12-20T08:35:36;99942.06;;;13.36;100.00
23733;BME280;12047;53.450;-2.286;2022-12-20T08:40:37;99951.38;;;12.84;100.00
23733;BME280;12047;53.450;-2.286;2022-12-20T08:45:41;99950.66;;;12.99;100.00
23733;BME280;12047;53.450;-2.286;2022-12-20T08:50:41;99955.16;;;12.98;100.00
23733;BME280;12047;53.450;-2.286;2022-12-20T08:55:42;99950.56;;;13.31;100.00
23733;BME280;12047;53.450;-2.286;2022-12-20T09:00:43;99962.06;;;13.15;100.00
23733;BME280;12047;53.450;-2.286;2022-12-20T09:05:45;99955.06;;;13.22;100.00
23733;BME280;12047;53.450;-2.286;2022-12-20T09:10:46;99958.53;;;12.84;100.00
23733;BME280;12047;53.450;-2.286;2022-12-20T09:15:47;99963.94;;;13.07;100.00
23733;BME280;12047;53.450;-2.286;2022-12-20T09:20:47;99973.50;;;12.77;100.00
23733;BME280;12047;53.450;-2.286;2022-12-20T09:25:48;99977.56;;;13.04;100.00
23733;BME280;12047;53.450;-2.286;2022-12-20T09:30:49;99985.03;;;13.08;100.00
23733;BME280;12047;53.450;-2.286;2022-12-20T09:35:50;99992.91;;;12.85;100.00
23733;BME280;12047;53.450;-2.286;2022-12-20T09:40:54;99995.84;;;13.07;100.00
23733;BME280;12047;53.450;-2.286;2022-12-20T09:46:00;100006.44;;;13.31;100.00
23733;BME280;12047;53.450;-2.286;2022-12-20T09:56:38;100006.16;;;13.02;100.00
23733;BME280;12047;53.450;-2.286;2022-12-20T10:01:46;100009.28;;;13.21;100.00
23733;BME280;12047;53.450;-2.286;2022-12-20T10:18:01;100029.22;;;13.25;100.00
23733;BME280;12047;53.450;-2.286;2022-12-20T10:23:24;100039.56;;;13.59;100.00
23733;BME280;12047;53.450;-2.286;2022-12-20T10:28:29;100058.47;;;13.73;100.00
23733;BME280;12047;53.450;-2.286;2022-12-20T10:33:31;100071.06;;;13.40;100.00
23733;BME280;12047;53.450;-2.286;2022-12-20T10:38:43;100061.41;;;13.47;100.00
23733;BME280;12047;53.450;-2.286;2022-12-20T10:43:47;100061.97;;;13.65;100.00
23733;BME280;12047;53.450;-2.286;2022-12-20T10:48:48;100062.72;;;14.13;100.00
23733;BME280;12047;53.450;-2.286;2022-12-20T10:54:01;100074.19;;;14.13;100.00
23733;BME280;12047;53.450;-2.286;2022-12-20T11:05:35;100086.72;;;13.82;100.00
23733;BME280;12047;53.450;-2.286;2022-12-20T11:10:22;100086.22;;;13.78;100.00
23733;BME280;12047;53.450;-2.286;2022-12-20T11:15:24;100076.81;;;14.21;100.00
23733;BME280;12047;53.450;-2.286;2022-12-20T11:20:59;100069.69;;;14.14;100.00
23733;BME280;12047;53.450;-2.286;2022-12-20T11:31:41;100076.28;;;14.57;100.00
23733;BME280;12047;53.450;-2.286;2022-12-20T11:37:38;100078.50;;;14.68;100.00
23733;BME280;12047;53.450;-2.286;2022-12-20T11:48:21;100075.66;;;14.70;100.00
23733;BME280;12047;53.450;-2.286;2022-12-20T11:53:42;100086.69;;;14.44;100.00
23733;BME280;12047;53.450;-2.286;2022-12-20T12:04:25;100079.03;;;15.01;100.00
23733;BME280;12047;53.450;-2.286;2022-12-20T12:09:39;100082.22;;;14.82;100.00
23733;BME280;12047;53.450;-2.286;2022-12-20T12:20:24;100069.47;;;15.21;100.00
23733;BME280;12047;53.450;-2.286;2022-12-20T12:25:28;100062.75;;;15.11;100.00
23733;BME280;12047;53.450;-2.286;2022-12-20T12:30:38;100061.84;;;15.04;100.00
23733;BME280;12047;53.450;-2.286;2022-12-20T12:36:10;100059.41;;;14.94;100.00
23733;BME280;12047;53.450;-2.286;2022-12-20T12:46:41;100048.13;;;15.07;100.00
23733;BME280;12047;53.450;-2.286;2022-12-20T12:51:51;100056.22;;;15.72;100.00
23733;BME280;12047;53.450;-2.286;2022-12-20T12:57:00;100052.63;;;15.65;100.00
23733;BME280;12047;53.450;-2.286;2022-12-20T13:07:28;100038.53;;;16.07;100.00
23733;BME280;12047;53.450;-2.286;2022-12-20T13:17:47;100052.06;;;15.40;100.00
23733;BME280;12047;53.450;-2.286;2022-12-20T13:34:00;100060.94;;;14.74;100.00
23733;BME280;12047;53.450;-2.286;2022-12-20T13:39:39;100064.22;;;14.98;100.00
23733;BME280;12047;53.450;-2.286;2022-12-20T13:44:46;100065.88;;;15.44;100.00
23733;BME280;12047;53.450;-2.286;2022-12-20T13:49:47;100058.34;;;14.66;100.00
23733;BME280;12047;53.450;-2.286;2022-12-20T13:54:54;100059.53;;;14.63;100.00
23733;BME280;12047;53.450;-2.286;2022-12-20T13:59:59;100068.47;;;15.08;100.00
23733;BME280;12047;53.450;-2.286;2022-12-20T14:05:23;100063.38;;;14.83;100.00
23733;BME280;12047;53.450;-2.286;2022-12-20T14:10:29;100055.13;;;15.52;100.00
23733;BME280;12047;53.450;-2.286;2022-12-20T14:15:33;100049.59;;;15.09;100.00
23733;BME280;12047;53.450;-2.286;2022-12-20T14:20:35;100060.53;;;15.00;100.00
23733;BME280;12047;53.450;-2.286;2022-12-20T14:25:55;100062.38;;;14.99;100.00
23733;BME280;12047;53.450;-2.286;2022-12-20T14:30:58;100066.97;;;15.35;100.00
23733;BME280;12047;53.450;-2.286;2022-12-20T14:41:37;100090.88;;;14.98;100.00
23733;BME280;12047;53.450;-2.286;2022-12-20T14:46:38;100094.78;;;14.73;100.00
23733;BME280;12047;53.450;-2.286;2022-12-20T14:51:39;100090.13;;;14.52;100.00
23733;BME280;12047;53.450;-2.286;2022-12-20T14:56:47;100094.03;;;15.02;100.00
23733;BME280;12047;53.450;-2.286;2022-12-20T15:01:50;100093.97;;;14.50;100.00
23733;BME280;12047;53.450;-2.286;2022-12-20T15:06:51;100084.25;;;14.57;100.00
23733;BME280;12047;53.450;-2.286;2022-12-20T15:11:53;100089.88;;;14.62;100.00
23733;BME280;12047;53.450;-2.286;2022-12-20T15:16:54;100095.50;;;15.05;100.00
23733;BME280;12047;53.450;-2.286;2022-12-20T15:21:55;100104.28;;;14.90;100.00
23733;BME280;12047;53.450;-2.286;2022-12-20T15:26:56;100110.50;;;14.14;100.00
23733;BME280;12047;53.450;-2.286;2022-12-20T15:37:14;100112.94;;;14.24;100.00
23733;BME280;12047;53.450;-2.286;2022-12-20T15:42:17;100123.50;;;14.40;100.00
23733;BME280;12047;53.450;-2.286;2022-12-20T15:47:23;100133.19;;;14.10;100.00
23733;BME280;12047;53.450;-2.286;2022-12-20T15:52:24;100127.44;;;14.75;100.00
23733;BME280;12047;53.450;-2.286;2022-12-20T15:57:25;100121.78;;;14.55;100.00
23733;BME280;12047;53.450;-2.286;2022-12-20T16:02:28;100128.75;;;14.25;100.00
23733;BME280;12047;53.450;-2.286;2022-12-20T16:07:29;100133.22;;;14.02;100.00
23733;BME280;12047;53.450;-2.286;2022-12-20T16:12:32;100143.09;;;14.24;100.00
23733;BME280;12047;53.450;-2.286;2022-12-20T16:17:34;100139.13;;;14.12;100.00
23733;BME280;12047;53.450;-2.286;2022-12-20T16:22:37;100153.56;;;13.87;100.00
23733;BME280;12047;53.450;-2.286;2022-12-20T16:27:38;100148.28;;;14.49;100.00
23733;BME280;12047;53.450;-2.286;2022-12-20T16:32:41;100152.16;;;14.38;100.00
23733;BME280;12047;53.450;-2.286;2022-12-20T16:37:42;100155.59;;;13.85;100.00
23733;BME280;12047;53.450;-2.286;2022-12-20T16:42:43;100161.13;;;13.75;100.00
23733;BME280;12047;53.450;-2.286;2022-12-20T16:47:45;100159.88;;;13.94;100.00
23733;BME280;12047;53.450;-2.286;2022-12-20T16:52:46;100173.19;;;13.47;100.00
23733;BME280;12047;53.450;-2.286;2022-12-20T16:57:47;100182.50;;;13.51;100.00
23733;BME280;12047;53.450;-2.286;2022-12-20T17:02:48;100183.34;;;13.19;100.00
23733;BME280;12047;53.450;-2.286;2022-12-20T17:07:50;100167.72;;;12.91;100.00
23733;BME280;12047;53.450;-2.286;2022-12-20T17:12:51;100172.84;;;13.42;100.00
23733;BME280;12047;53.450;-2.286;2022-12-20T17:17:52;100167.19;;;13.12;100.00
23733;BME280;12047;53.450;-2.286;2022-12-20T17:22:54;100170.53;;;13.39;100.00
23733;BME280;12047;53.450;-2.286;2022-12-20T17:27:55;100189.25;;;13.70;100.00
23733;BME280;12047;53.450;-2.286;2022-12-20T17:32:56;100188.69;;;13.27;100.00
23733;BME280;12047;53.450;-2.286;2022-12-20T17:37:57;100186.31;;;13.56;100.00
23733;BME280;12047;53.450;-2.286;2022-12-20T17:42:58;100189.31;;;13.13;100.00
23733;BME280;12047;53.450;-2.286;2022-12-20T17:47:58;100181.00;;;13.48;100.00
23733;BME280;12047;53.450;-2.286;2022-12-20T17:52:59;100184.66;;;12.74;100.00
23733;BME280;12047;53.450;-2.286;2022-12-20T17:58:00;100178.69;;;13.05;100.00
23733;BME280;12047;53.450;-2.286;2022-12-20T18:03:01;100188.16;;;12.83;100.00
23733;BME280;12047;53.450;-2.286;2022-12-20T18:08:02;100191.50;;;13.09;100.00
23733;BME280;12047;53.450;-2.286;2022-12-20T18:13:03;100188.66;;;12.86;100.00
23733;BME280;12047;53.450;-2.286;2022-12-20T18:18:03;100186.66;;;12.97;100.00
23733;BME280;12047;53.450;-2.286;2022-12-20T18:23:04;100182.31;;;12.87;100.00
23733;BME280;12047;53.450;-2.286;2022-12-20T18:28:05;100192.50;;;12.84;100.00
23733;BME280;12047;53.450;-2.286;2022-12-20T18:33:06;100201.28;;;12.92;100.00
23733;BME280;12047;53.450;-2.286;2022-12-20T18:38:06;100214.09;;;13.05;100.00
23733;BME280;12047;53.450;-2.286;2022-12-20T18:43:08;100210.97;;;13.34;100.00
23733;BME280;12047;53.450;-2.286;2022-12-20T18:48:08;100213.59;;;13.02;100.00
23733;BME280;12047;53.450;-2.286;2022-12-20T18:53:09;100216.75;;;13.05;100.00
23733;BME280;12047;53.450;-2.286;2022-12-20T18:58:10;100216.19;;;12.53;100.00
23733;BME280;12047;53.450;-2.286;2022-12-20T19:03:14;100210.88;;;12.69;100.00
23733;BME280;12047;53.450;-2.286;2022-12-20T19:08:15;100220.03;;;12.67;100.00
23733;BME280;12047;53.450;-2.286;2022-12-20T19:13:16;100213.13;;;13.22;100.00
23733;BME280;12047;53.450;-2.286;2022-12-20T19:18:19;100205.59;;;12.93;100.00
23733;BME280;12047;53.450;-2.286;2022-12-20T19:23:20;100222.03;;;12.73;100.00
23733;BME280;12047;53.450;-2.286;2022-12-20T19:28:21;100215.25;;;12.86;100.00
23733;BME280;12047;53.450;-2.286;2022-12-20T19:33:23;100221.38;;;12.79;100.00
23733;BME280;12047;53.450;-2.286;2022-12-20T19:38:24;100223.88;;;12.97;100.00
23733;BME280;12047;53.450;-2.286;2022-12-20T19:43:24;100214.72;;;12.75;100.00
23733;BME280;12047;53.450;-2.286;2022-12-20T19:48:25;100215.53;;;12.59;100.00
23733;BME280;12047;53.450;-2.286;2022-12-20T19:53:25;100224.13;;;12.37;100.00
23733;BME280;12047;53.450;-2.286;2022-12-20T19:58:26;100211.41;;;12.89;100.00
23733;BME280;12047;53.450;-2.286;2022-12-20T20:03:27;100211.41;;;12.73;100.00
23733;BME280;12047;53.450;-2.286;2022-12-20T20:08:27;100214.09;;;13.05;100.00
23733;BME280;12047;53.450;-2.286;2022-12-20T20:13:28;100214.19;;;12.63;100.00
23733;BME280;12047;53.450;-2.286;2022-12-20T20:18:35;100218.81;;;12.37;100.00
23733;BME280;12047;53.450;-2.286;2022-12-20T20:23:37;100224.19;;;12.61;100.00
23733;BME280;12047;53.450;-2.286;2022-12-20T20:28:38;100218.69;;;12.63;100.00
23733;BME280;12047;53.450;-2.286;2022-12-20T20:33:39;100213.69;;;12.01;100.00
23733;BME280;12047;53.450;-2.286;2022-12-20T20:38:39;100208.84;;;11.71;100.00
23733;BME280;12047;53.450;-2.286;2022-12-20T20:43:41;100207.06;;;12.05;100.00
23733;BME280;12047;53.450;-2.286;2022-12-20T20:48:42;100203.94;;;12.10;100.00
23733;BME280;12047;53.450;-2.286;2022-12-20T20:53:43;100206.69;;;12.34;100.00
23733;BME280;12047;53.450;-2.286;2022-12-20T20:58:43;100203.09;;;12.09;100.00
23733;BME280;12047;53.450;-2.286;2022-12-20T21:03:44;100201.53;;;12.33;100.00
23733;BME280;12047;53.450;-2.286;2022-12-20T21:08:45;100194.53;;;12.40;100.00
23733;BME280;12047;53.450;-2.286;2022-12-20T21:13:46;100213.81;;;12.34;100.00
23733;BME280;12047;53.450;-2.286;2022-12-20T21:18:56;100209.22;;;12.68;100.00
23733;BME280;12047;53.450;-2.286;2022-12-20T21:23:57;100216.38;;;12.59;100.00
23733;BME280;12047;53.450;-2.286;2022-12-20T21:28:59;100221.84;;;12.58;100.00
23733;BME280;12047;53.450;-2.286;2022-12-20T21:34:00;100213.78;;;13.33;100.00
23733;BME280;12047;53.450;-2.286;2022-12-20T21:39:01;100211.13;;;13.08;100.00
23733;BME280;12047;53.450;-2.286;2022-12-20T21:44:02;100211.78;;;13.26;100.00
23733;BME280;12047;53.450;-2.286;2022-12-20T21:49:03;100213.56;;;12.93;100.00
23733;BME280;12047;53.450;-2.286;2022-12-20T21:54:04;100210.56;;;12.72;100.00
23733;BME280;12047;53.450;-2.286;2022-12-20T21:59:05;100196.13;;;12.99;100.00
23733;BME280;12047;53.450;-2.286;2022-12-20T22:04:06;100206.63;;;13.01;100.00
23733;BME280;12047;53.450;-2.286;2022-12-20T22:09:07;100208.59;;;13.15;100.00
23733;BME280;12047;53.450;-2.286;2022-12-20T22:14:11;100189.97;;;12.90;100.00
23733;BME280;12047;53.450;-2.286;2022-12-20T22:19:13;100196.00;;;13.17;100.00
23733;BME280;12047;53.450;-2.286;2022-12-20T22:24:14;100205.63;;;13.18;100.00
23733;BME280;12047;53.450;-2.286;2022-12-20T22:29:15;100194.97;;;13.50;100.00
23733;BME280;12047;53.450;-2.286;2022-12-20T22:34:15;100195.16;;;13.08;100.00
23733;BME280;12047;53.450;-2.286;2022-12-20T22:39:16;100200.47;;;13.41;100.00
23733;BME280;12047;53.450;-2.286;2022-12-20T22:44:17;100198.66;;;13.25;100.00
23733;BME280;12047;53.450;-2.286;2022-12-20T22:49:18;100186.34;;;13.32;100.00
23733;BME280;12047;53.450;-2.286;2022-12-20T22:54:18;100171.56;;;13.21;100.00
23733;BME280;12047;53.450;-2.286;2022-12-20T22:59:19;100170.06;;;13.35;100.00
23733;BME280;12047;53.450;-2.286;2022-12-20T23:04:20;100174.72;;;13.17;100.00
23733;BME280;12047;53.450;-2.286;2022-12-20T23:09:23;100174.53;;;13.18;100.00
23733;BME280;12047;53.450;-2.286;2022-12-20T23:14:24;100170.69;;;13.45;100.00
23733;BME280;12047;53.450;-2.286;2022-12-20T23:19:43;100171.28;;;13.63;100.00
23733;BME280;12047;53.450;-2.286;2022-12-20T23:25:04;100162.91;;;13.36;100.00
23733;BME280;12047;53.450;-2.286;2022-12-20T23:30:06;100142.78;;;13.17;100.00
23733;BME280;12047;53.450;-2.286;2022-12-20T23:35:11;100143.25;;;13.45;100.00
23733;BME280;12047;53.450;-2.286;2022-12-20T23:40:14;100133.69;;;13.67;100.00
23733;BME280;12047;53.450;-2.286;2022-12-20T23:45:15;100129.81;;;13.06;100.00
23733;BME280;12047;53.450;-2.286;2022-12-20T23:50:16;100129.59;;;13.40;100.00
23733;BME280;12047;53.450;-2.286;2022-12-20T23:55:16;100126.69;;;13.74;100.00
